Datum Uhrzeit Temperatur Luft Windgeschw. Regen Regen (1h) Temp (1h) Luftdruck Windrichtung Taupunkt Sensor
2018-02-24 10:40:00 0.1 72.0 3.0 0.0 0.0 -0.3 -4.3 Kombisensor
2018-02-24 10:38:00 0.1 71.0 2.7 0.0 0.0 -0.3 -4.5 Kombisensor
2018-02-24 10:35:00 0.3 71.0 2.7 0.0 0.0 0.0 -4.3 Kombisensor
2018-02-24 10:33:00 0.5 71.0 1.9 0.0 0.0 0.2 -4.1 Kombisensor
2018-02-24 10:30:00 0.6 71.0 2.7 0.0 0.0 0.4 -4.0 Kombisensor
2018-02-24 10:28:00 0.7 71.0 1.9 0.0 0.0 0.5 -3.9 Kombisensor
2018-02-24 10:25:00 0.5 72.0 5.0 0.0 0.0 0.3 -3.9 Kombisensor
2018-02-24 10:23:00 0.3 72.0 2.5 0.0 0.0 0.1 -4.1 Kombisensor
2018-02-24 10:20:00 0.3 72.0 3.6 0.0 0.0 0.1 -4.1 Kombisensor
2018-02-24 10:18:00 0.3 72.0 23.3 0.0 0.0 0.1 -4.1 Kombisensor
2018-02-24 10:15:00 0.3 72.0 3.6 0.0 0.0 0.1 -4.1 Kombisensor
2018-02-24 10:12:00 0.3 73.0 1.3 0.0 0.0 0.1 -4.0 Kombisensor
2018-02-24 10:10:00 0.2 72.0 3.0 0.0 0.0 0.0 -4.2 Kombisensor
2018-02-24 10:05:00 0.3 72.0 2.2 0.0 0.0 0.2 -4.1 Kombisensor
2018-02-24 10:02:00 0.3 72.0 5.0 0.0 0.0 0.1 -4.1 Kombisensor
2018-02-24 10:00:00 0.4 73.0 2.5 0.0 0.0 0.3 -3.9 Kombisensor
2018-02-24 09:57:00 0.4 73.0 4.7 0.0 0.0 0.3 -3.9 Kombisensor
2018-02-24 09:55:00 0.5 74.0 3.8 0.0 0.0 0.4 -3.6 Kombisensor
2018-02-24 09:52:00 0.3 74.0 3.0 0.0 0.0 0.3 -3.8 Kombisensor
2018-02-24 09:50:00 0.3 74.0 3.6 0.0 0.0 0.3 -3.8 Kombisensor
2018-02-24 09:47:00 0.4 74.0 3.0 0.0 0.0 0.6 -3.7 Kombisensor
2018-02-24 09:44:00 0.4 75.0 3.0 0.0 0.0 0.6 -3.5 Kombisensor
2018-02-24 09:42:00 0.4 74.0 2.5 0.0 0.0 0.6 -3.7 Kombisensor
2018-02-24 09:39:00 0.4 75.0 3.3 0.0 0.0 0.6 -3.5 Kombisensor
2018-02-24 09:37:00 0.4 75.0 3.8 0.0 0.0 0.6 -3.5 Kombisensor
2018-02-24 09:34:00 0.3 75.0 2.7 0.0 0.0 0.5 -3.6 Kombisensor
2018-02-24 09:32:00 0.3 75.0 4.4 0.0 0.0 0.5 -3.6 Kombisensor
2018-02-24 09:29:00 0.2 75.0 16.1 0.0 0.0 0.4 -3.7 Kombisensor
2018-02-24 09:22:00 0.2 75.0 2.7 0.0 0.0 0.4 -3.7 Kombisensor
2018-02-24 09:17:00 0.2 75.0 3.8 0.0 0.0 0.5 -3.7 Kombisensor
2018-02-24 09:14:00 0.2 75.0 3.6 0.0 0.0 0.5 -3.7 Kombisensor
2018-02-24 09:11:00 0.2 75.0 4.1 0.0 0.0 0.5 -3.7 Kombisensor
2018-02-24 09:09:00 0.2 76.0 3.6 0.0 0.0 0.5 -3.5 Kombisensor
2018-02-24 09:06:00 0.2 76.0 3.3 0.0 0.0 0.5 -3.5 Kombisensor
2018-02-24 09:04:00 0.1 77.0 0.8 0.0 0.0 0.4 -3.4 Kombisensor
2018-02-24 09:01:00 0.2 77.0 1.3 0.0 0.0 0.6 -3.3 Kombisensor
2018-02-24 08:59:00 0.1 77.0 3.6 0.0 0.0 0.5 -3.4 Kombisensor
2018-02-24 08:56:00 0.1 77.0 2.2 0.0 0.0 0.5 -3.4 Kombisensor
2018-02-24 08:54:00 0.1 78.0 2.2 0.0 0.0 0.5 -3.3 Kombisensor
2018-02-24 08:51:00 0.0 78.0 1.6 0.0 0.0 0.4 -3.4 Kombisensor
2018-02-24 08:49:00 0.0 78.0 3.6 0.0 0.0 0.4 -3.4 Kombisensor
2018-02-24 08:44:00 -0.2 78.0 0.8 0.0 0.0 0.2 -3.5 Kombisensor
2018-02-24 08:41:00 -0.2 78.0 3.8 0.0 0.0 0.2 -3.5 Kombisensor
2018-02-24 08:38:00 -0.2 78.0 0.8 0.0 0.0 0.3 -3.5 Kombisensor
2018-02-24 08:36:00 -0.2 79.0 0.0 0.0 0.0 0.3 -3.4 Kombisensor
2018-02-24 08:33:00 -0.2 78.0 0.8 0.0 0.0 0.3 -3.5 Kombisensor
2018-02-24 08:31:00 -0.2 78.0 1.6 0.0 0.0 0.3 -3.5 Kombisensor
2018-02-24 08:28:00 -0.2 78.0 1.1 0.0 0.0 0.4 -3.5 Kombisensor
2018-02-24 08:26:00 -0.2 78.0 3.8 0.0 0.0 0.4 -3.5 Kombisensor
2018-02-24 08:23:00 -0.3 78.0 4.4 0.0 0.0 0.3 -3.6 Kombisensor
2018-02-24 08:21:00 -0.2 79.0 1.1 0.0 0.0 0.4 -3.4 Kombisensor
2018-02-24 08:18:00 -0.3 79.0 1.6 0.0 0.0 0.4 -3.5 Kombisensor
2018-02-24 08:16:00 -0.3 79.0 1.9 0.0 0.0 0.4 -3.5 Kombisensor
2018-02-24 08:13:00 -0.3 79.0 1.3 0.0 0.0 0.4 -3.5 Kombisensor
2018-02-24 08:10:00 -0.3 79.0 2.5 0.0 0.0 0.4 -3.5 Kombisensor
2018-02-24 08:08:00 -0.3 79.0 3.0 0.0 0.0 0.4 -3.5 Kombisensor
2018-02-24 08:03:00 -0.3 79.0 1.3 0.0 0.0 0.6 -3.5 Kombisensor
2018-02-24 08:00:00 -0.4 79.0 1.6 0.0 0.0 0.5 -3.6 Kombisensor
2018-02-24 07:58:00 -0.4 80.0 0.5 0.0 0.0 0.5 -3.4 Kombisensor
2018-02-24 07:55:00 -0.4 80.0 1.1 0.0 0.0 0.5 -3.4 Kombisensor
2018-02-24 07:53:00 -0.4 80.0 1.1 0.0 0.0 0.5 -3.4 Kombisensor
2018-02-24 07:50:00 -0.4 80.0 1.9 0.0 0.0 0.5 -3.4 Kombisensor
2018-02-24 07:48:00 -0.4 80.0 2.5 0.0 0.0 0.5 -3.4 Kombisensor
2018-02-24 07:45:00 -0.4 81.0 0.5 0.0 0.0 0.5 -3.2 Kombisensor
2018-02-24 07:43:00 -0.4 81.0 1.1 0.0 0.0 0.5 -3.2 Kombisensor
2018-02-24 07:40:00 -0.4 81.0 2.2 0.0 0.0 0.5 -3.2 Kombisensor
2018-02-24 07:37:00 -0.5 82.0 0.2 0.0 0.0 0.3 -3.2 Kombisensor
2018-02-24 07:35:00 -0.5 82.0 1.1 0.0 0.0 0.3 -3.2 Kombisensor
2018-02-24 07:32:00 -0.5 82.0 0.5 0.0 0.0 0.3 -3.2 Kombisensor
2018-02-24 07:30:00 -0.5 82.0 0.2 0.0 0.0 0.3 -3.2 Kombisensor
2018-02-24 07:27:00 -0.6 83.0 0.0 0.0 0.0 0.2 -3.1 Kombisensor
2018-02-24 07:22:00 -0.6 84.0 2.7 0.0 0.0 0.2 -3.0 Kombisensor
2018-02-24 07:20:00 -0.6 85.0 0.0 0.0 0.0 0.2 -2.8 Kombisensor
2018-02-24 07:17:00 -0.7 85.0 0.0 0.0 0.0 0.1 -2.9 Kombisensor
2018-02-24 07:15:00 -0.7 85.0 0.0 0.0 0.0 0.0 -2.9 Kombisensor
2018-02-24 07:12:00 -0.7 85.0 0.0 0.0 0.0 0.0 -2.9 Kombisensor
2018-02-24 07:09:00 -0.7 86.0 0.0 0.0 0.0 0.0 -2.7 Kombisensor
2018-02-24 07:07:00 -0.8 86.0 0.0 0.0 0.0 -0.1 -2.8 Kombisensor
2018-02-24 07:04:00 -0.8 86.0 1.3 0.0 0.0 -0.1 -2.8 Kombisensor
2018-02-24 07:02:00 -0.9 86.0 0.5 0.0 0.0 -0.2 -2.9 Kombisensor
2018-02-24 06:54:00 -0.9 86.0 0.0 0.0 0.0 -0.3 -2.9 Kombisensor
2018-02-24 06:52:00 -0.9 86.0 0.2 0.0 0.0 -0.3 -2.9 Kombisensor
2018-02-24 06:49:00 -0.9 85.0 0.0 0.0 0.0 -0.3 -3.1 Kombisensor
2018-02-24 06:47:00 -0.9 85.0 6.3 0.0 0.0 -0.3 -3.1 Kombisensor
2018-02-24 06:41:00 -0.9 85.0 1.9 0.0 0.0 -0.4 -3.1 Kombisensor
2018-02-24 06:39:00 -0.9 84.0 0.0 0.0 0.0 -0.4 -3.2 Kombisensor
2018-02-24 06:36:00 -0.8 84.0 0.0 0.0 0.0 -0.3 -3.1 Kombisensor
2018-02-24 06:34:00 -0.8 83.0 0.2 0.0 0.0 -0.3 -3.3 Kombisensor
2018-02-24 06:31:00 -0.8 83.0 0.5 0.0 0.0 -0.4 -3.3 Kombisensor
2018-02-24 06:29:00 -0.8 82.0 1.9 0.0 0.0 -0.4 -3.5 Kombisensor
2018-02-24 06:26:00 -0.8 82.0 0.0 0.0 0.0 -0.4 -3.5 Kombisensor
2018-02-24 06:24:00 -0.8 82.0 0.5 0.0 0.0 -0.4 -3.5 Kombisensor
2018-02-24 06:16:00 -0.8 82.0 0.0 0.0 0.0 -0.3 -3.5 Kombisensor
2018-02-24 06:11:00 -0.7 82.0 0.0 0.0 0.0 -0.2 -3.4 Kombisensor
2018-02-24 06:06:00 -0.7 81.0 0.0 0.0 0.0 -0.2 -3.5 Kombisensor
2018-02-24 06:01:00 -0.7 81.0 1.3 0.0 0.0 -0.1 -3.5 Kombisensor
2018-02-24 05:58:00 -0.6 81.0 1.9 0.0 0.0 0.0 -3.4 Kombisensor
2018-02-24 05:56:00 -0.6 81.0 1.6 0.0 0.0 0.0 -3.4 Kombisensor
2018-02-24 05:53:00 -0.6 81.0 0.5 0.0 0.0 0.0 -3.4 Kombisensor
2018-02-24 05:51:00 -0.6 81.0 0.2 0.0 0.0 0.0 -3.4 Kombisensor
2018-02-24 05:46:00 -0.6 81.0 2.2 0.0 0.0 0.0 -3.4 Kombisensor
2018-02-24 05:43:00 -0.6 81.0 2.5 0.0 0.0 0.0 -3.4 Kombisensor
2018-02-24 05:40:00 -0.5 81.0 3.3 0.0 0.0 0.1 -3.3 Kombisensor
2018-02-24 05:38:00 -0.5 81.0 1.1 0.0 0.0 0.1 -3.3 Kombisensor
2018-02-24 05:35:00 -0.5 81.0 1.3 0.0 0.0 0.1 -3.3 Kombisensor
2018-02-24 05:33:00 -0.5 81.0 0.0 0.0 0.0 0.1 -3.3 Kombisensor
2018-02-24 05:28:00 -0.4 81.0 1.3 0.0 0.0 0.2 -3.2 Kombisensor
2018-02-24 05:25:00 -0.4 81.0 3.0 0.0 0.0 0.3 -3.2 Kombisensor
2018-02-24 05:20:00 -0.4 81.0 2.5 0.0 0.0 0.2 -3.2 Kombisensor
2018-02-24 05:18:00 -0.5 81.0 0.8 0.0 0.0 0.1 -3.3 Kombisensor
2018-02-24 05:15:00 -0.5 81.0 0.5 0.0 0.0 0.1 -3.3 Kombisensor
2018-02-24 05:07:00 -0.5 81.0 0.0 0.0 0.0 0.0 -3.3 Kombisensor
2018-02-24 05:05:00 -0.5 81.0 0.8 0.0 0.0 0.0 -3.3 Kombisensor
2018-02-24 05:02:00 -0.5 81.0 0.2 0.0 0.0 0.0 -3.3 Kombisensor
2018-02-24 04:50:00 -0.6 81.0 0.5 0.0 0.0 -0.1 -3.4 Kombisensor
2018-02-24 04:47:00 -0.6 81.0 0.5 0.0 0.0 -0.1 -3.4 Kombisensor
2018-02-24 04:45:00 -0.6 82.0 0.0 0.0 0.0 -0.1 -3.3 Kombisensor
2018-02-24 04:39:00 -0.6 82.0 0.8 0.0 0.0 -0.1 -3.3 Kombisensor
2018-02-24 04:37:00 -0.7 82.0 0.0 0.0 0.0 -0.2 -3.4 Kombisensor
2018-02-24 04:34:00 -0.6 82.0 0.0 0.0 0.0 0.0 -3.3 Kombisensor
2018-02-24 04:32:00 -0.6 82.0 0.2 0.0 0.0 0.0 -3.3 Kombisensor
2018-02-24 04:29:00 -0.6 82.0 0.8 0.0 0.0 0.0 -3.3 Kombisensor
2018-02-24 04:27:00 -0.6 82.0 0.2 0.0 0.0 0.0 -3.3 Kombisensor
2018-02-24 04:24:00 -0.7 82.0 3.0 0.0 0.0 -0.1 -3.4 Kombisensor
2018-02-24 04:22:00 -0.6 82.0 0.8 0.0 0.0 0.0 -3.3 Kombisensor
2018-02-24 04:19:00 -0.6 82.0 0.5 0.0 0.0 0.0 -3.3 Kombisensor
2018-02-24 04:17:00 -0.6 82.0 1.6 0.0 0.0 0.0 -3.3 Kombisensor
2018-02-24 04:14:00 -0.6 82.0 0.0 0.0 0.0 0.0 -3.3 Kombisensor
2018-02-24 04:11:00 -0.6 82.0 0.8 0.0 0.0 0.0 -3.3 Kombisensor
2018-02-24 04:09:00 -0.5 82.0 0.2 0.0 0.0 0.1 -3.2 Kombisensor
2018-02-24 04:06:00 -0.5 82.0 0.0 0.0 0.0 0.1 -3.2 Kombisensor
2018-02-24 04:04:00 -0.5 81.0 0.8 0.0 0.0 0.1 -3.3 Kombisensor
2018-02-24 03:59:00 -0.5 81.0 2.5 0.0 0.0 0.1 -3.3 Kombisensor
2018-02-24 03:49:00 -0.5 81.0 0.0 0.0 0.0 0.1 -3.3 Kombisensor
2018-02-24 03:46:00 -0.5 81.0 0.5 0.0 0.0 0.1 -3.3 Kombisensor
2018-02-24 03:44:00 -0.5 81.0 0.0 0.0 0.0 0.1 -3.3 Kombisensor
2018-02-24 03:41:00 -0.5 81.0 1.3 0.0 0.0 0.1 -3.3 Kombisensor
2018-02-24 03:38:00 -0.5 81.0 0.0 0.0 0.0 0.1 -3.3 Kombisensor
2018-02-24 03:18:00 -0.6 81.0 0.0 0.0 0.0 0.0 -3.4 Kombisensor
2018-02-24 03:16:00 -0.6 81.0 0.2 0.0 0.0 -0.1 -3.4 Kombisensor
2018-02-24 03:13:00 -0.6 81.0 1.6 0.0 0.0 -0.1 -3.4 Kombisensor
2018-02-24 03:11:00 -0.6 81.0 1.9 0.0 0.0 -0.1 -3.4 Kombisensor
2018-02-24 03:08:00 -0.6 81.0 0.2 0.0 0.0 -0.1 -3.4 Kombisensor
2018-02-24 03:05:00 -0.6 81.0 0.0 0.0 0.0 -0.1 -3.4 Kombisensor
2018-02-24 03:03:00 -0.6 80.0 0.8 0.0 0.0 -0.1 -3.6 Kombisensor
2018-02-24 03:00:00 -0.6 80.0 2.5 0.0 0.0 -0.1 -3.6 Kombisensor
2018-02-24 02:58:00 -0.6 80.0 0.2 0.0 0.0 -0.1 -3.6 Kombisensor
2018-02-24 02:55:00 -0.6 80.0 1.9 0.0 0.0 -0.1 -3.6 Kombisensor
2018-02-24 02:53:00 -0.6 81.0 0.2 0.0 0.0 0.0 -3.4 Kombisensor
2018-02-24 02:45:00 -0.6 81.0 0.0 0.0 0.0 -0.2 -3.4 Kombisensor
2018-02-24 02:43:00 -0.6 80.0 0.8 0.0 0.0 -0.2 -3.6 Kombisensor
2018-02-24 02:37:00 -0.6 80.0 0.0 0.0 0.0 -0.2 -3.6 Kombisensor
2018-02-24 02:35:00 -0.6 80.0 0.2 0.0 0.0 -0.2 -3.6 Kombisensor
2018-02-24 02:30:00 -0.6 80.0 0.5 0.0 0.0 -0.2 -3.6 Kombisensor
2018-02-24 02:27:00 -0.6 81.0 0.5 0.0 0.0 -0.2 -3.4 Kombisensor
2018-02-24 02:17:00 -0.6 81.0 0.0 0.0 0.0 -0.3 -3.4 Kombisensor
2018-02-24 02:12:00 -0.5 81.0 0.0 0.0 0.0 -0.1 -3.3 Kombisensor
2018-02-24 02:10:00 -0.5 81.0 0.2 0.0 0.0 -0.1 -3.3 Kombisensor
2018-02-24 02:07:00 -0.5 80.0 0.2 0.0 0.0 -0.1 -3.5 Kombisensor
2018-02-24 02:04:00 -0.5 80.0 0.2 0.0 0.0 -0.1 -3.5 Kombisensor
2018-02-24 02:02:00 -0.5 80.0 1.1 0.0 0.0 -0.1 -3.5 Kombisensor
2018-02-24 01:54:00 -0.5 80.0 2.5 0.0 0.0 0.0 -3.5 Kombisensor
2018-02-24 01:52:00 -0.6 81.0 1.1 0.0 0.0 -0.1 -3.4 Kombisensor
2018-02-24 01:47:00 -0.5 81.0 0.8 0.0 0.0 0.1 -3.3 Kombisensor
2018-02-24 01:44:00 -0.4 81.0 0.0 0.0 0.0 0.2 -3.2 Kombisensor
2018-02-24 01:42:00 -0.4 81.0 0.5 0.0 0.0 0.3 -3.2 Kombisensor
2018-02-24 01:39:00 -0.4 81.0 1.1 0.0 0.0 0.4 -3.2 Kombisensor
2018-02-24 01:36:00 -0.4 81.0 0.2 0.0 0.0 0.4 -3.2 Kombisensor
2018-02-24 01:34:00 -0.3 81.0 1.9 0.0 0.0 0.5 -3.1 Kombisensor
2018-02-24 01:31:00 -0.4 81.0 1.9 0.0 0.0 0.5 -3.2 Kombisensor
2018-02-24 01:29:00 -0.4 81.0 0.5 0.0 0.0 0.6 -3.2 Kombisensor
2018-02-24 01:26:00 -0.4 81.0 0.2 0.0 0.0 0.7 -3.2 Kombisensor
2018-02-24 01:21:00 -0.4 81.0 0.0 0.0 0.0 0.9 -3.2 Kombisensor
2018-02-24 01:16:00 -0.3 81.0 0.2 0.0 0.0 1.1 -3.1 Kombisensor
2018-02-24 01:03:00 -0.4 81.0 0.0 0.0 0.0 1.7 -3.2 Kombisensor
2018-02-24 01:01:00 -0.4 81.0 1.1 0.0 0.0 1.7 -3.2 Kombisensor
2018-02-24 00:59:00 -0.4 81.0 0.5 0.0 0.0 -0.4 -3.2 Kombisensor
2018-02-24 00:53:00 -0.5 81.0 0.5 0.0 0.0 0.0 -3.3 Kombisensor
2018-02-24 00:51:00 -0.5 81.0 2.5 0.0 0.0 0.1 -3.3 Kombisensor
2018-02-24 00:48:00 -0.6 81.0 1.6 0.0 0.0 0.0 -3.4 Kombisensor
2018-02-24 00:43:00 -0.6 82.0 0.0 0.0 0.0 0.1 -3.3 Kombisensor
2018-02-24 00:41:00 -0.7 83.0 0.2 0.0 0.0 0.1 -3.2 Kombisensor
2018-02-24 00:35:00 -0.8 83.0 0.0 0.0 0.0 0.0 -3.3 Kombisensor
2018-02-24 00:33:00 -0.8 84.0 0.0 0.0 0.0 0.1 -3.1 Kombisensor
2018-02-24 00:30:00 -0.9 84.0 0.5 0.0 0.0 0.1 -3.2 Kombisensor
2018-02-24 00:28:00 -1.0 84.0 0.5 0.0 0.0 0.1 -3.3 Kombisensor
2018-02-24 00:25:00 -1.1 84.0 0.0 0.0 0.0 0.1 -3.4 Kombisensor
2018-02-24 00:23:00 -1.2 84.0 0.0 0.0 0.0 0.1 -3.5 Kombisensor
2018-02-24 00:20:00 -1.3 84.0 0.0 0.0 0.0 0.1 -3.6 Kombisensor
2018-02-24 00:18:00 -1.4 84.0 0.0 0.0 0.0 0.0 -3.7 Kombisensor
2018-02-24 00:15:00 -1.4 85.0 0.0 0.0 0.0 0.2 -3.6 Kombisensor
2018-02-24 00:13:00 -1.6 85.0 0.0 0.0 0.0 0.1 -3.8 Kombisensor
2018-02-24 00:10:00 -1.7 85.0 0.0 0.0 0.0 0.1 -3.9 Kombisensor
2018-02-24 00:08:00 -1.8 84.0 0.0 0.0 0.0 0.1 -4.1 Kombisensor
2018-02-24 00:05:00 -1.9 84.0 0.0 0.0 0.0 0.2 -4.2 Kombisensor
2018-02-24 00:00:00 -2.1 84.0 0.0 0.0 0.0 0.8 -4.4 Kombisensor